createdAt,value
2023-04-17T00:01:07.413Z,14.35
2023-04-17T00:03:14.024Z,16.02
2023-04-17T00:05:16.885Z,15.38
2023-04-17T00:07:22.828Z,15.77
2023-04-17T00:09:24.383Z,15.10
2023-04-17T00:11:26.374Z,15.18
2023-04-17T00:13:27.841Z,14.70
2023-04-17T00:15:29.467Z,15.20
2023-04-17T00:17:31.040Z,14.45
2023-04-17T00:19:32.600Z,15.60
2023-04-17T00:21:34.053Z,15.35
2023-04-17T00:23:35.593Z,15.13
2023-04-17T00:25:37.028Z,15.85
2023-04-17T00:27:38.629Z,15.77
2023-04-17T00:29:40.145Z,15.38
2023-04-17T00:31:41.687Z,16.17
2023-04-17T00:33:43.215Z,16.05
2023-04-17T00:35:44.736Z,16.05
2023-04-17T00:37:48.166Z,15.93
2023-04-17T00:39:49.699Z,16.48
2023-04-17T00:41:51.158Z,16.63
2023-04-17T00:43:52.635Z,16.60
2023-04-17T00:45:54.501Z,15.80
2023-04-17T00:47:58.751Z,16.10
2023-04-17T00:50:00.451Z,15.57
2023-04-17T00:52:02.714Z,16.05
2023-04-17T00:54:04.495Z,15.88
2023-04-17T00:56:06.797Z,15.45
2023-04-17T00:58:09.106Z,15.77
2023-04-17T01:00:11.415Z,15.23
2023-04-17T01:02:13.471Z,16.42
2023-04-17T01:04:15.155Z,16.40
2023-04-17T01:06:16.899Z,16.77
2023-04-17T01:08:19.330Z,16.42
2023-04-17T01:10:21.008Z,16.75
2023-04-17T01:12:24.443Z,16.80
2023-04-17T01:14:25.911Z,16.20
2023-04-17T01:16:30.358Z,16.90
2023-04-17T01:18:31.826Z,16.13
2023-04-17T01:20:34.173Z,16.48
2023-04-17T01:22:35.920Z,17.00
2023-04-17T01:24:37.777Z,16.67
2023-04-17T01:26:39.905Z,18.17
2023-04-17T01:28:41.420Z,16.30
2023-04-17T01:30:42.982Z,17.08
2023-04-17T01:32:44.532Z,16.83
2023-04-17T01:34:46.141Z,16.83
2023-04-17T01:36:47.818Z,16.90
2023-04-17T01:38:49.337Z,17.08
2023-04-17T01:40:51.403Z,18.15
2023-04-17T01:42:52.953Z,18.35
2023-04-17T01:44:54.468Z,16.98
2023-04-17T01:46:56.583Z,17.48
2023-04-17T01:48:58.076Z,17.02
2023-04-17T01:50:59.830Z,16.95
2023-04-17T01:53:01.328Z,17.70
2023-04-17T01:55:04.200Z,18.17
2023-04-17T01:57:05.699Z,18.15
2023-04-17T01:59:07.184Z,18.30
2023-04-17T02:01:08.667Z,18.05
2023-04-17T02:03:10.248Z,19.30
2023-04-17T02:05:11.840Z,20.75
2023-04-17T02:07:13.333Z,21.90
2023-04-17T02:09:14.785Z,20.98
2023-04-17T02:11:16.330Z,21.77
2023-04-17T02:13:17.846Z,22.13
2023-04-17T02:15:19.413Z,22.27
2023-04-17T02:17:20.990Z,22.58
2023-04-17T02:19:22.814Z,22.02
2023-04-17T02:21:24.386Z,21.83
2023-04-17T02:23:26.222Z,23.52
2023-04-17T02:25:28.452Z,23.50
2023-04-17T02:27:30.026Z,24.33
2023-04-17T02:29:31.626Z,24.45
2023-04-17T02:31:33.428Z,25.90
2023-04-17T02:33:36.821Z,25.60
2023-04-17T02:35:38.368Z,27.33
2023-04-17T02:37:40.103Z,28.17
2023-04-17T02:39:41.636Z,29.00
2023-04-17T02:41:43.113Z,32.40
2023-04-17T02:43:44.662Z,30.38
2023-04-17T02:45:46.152Z,33.08
2023-04-17T02:47:48.231Z,32.97
2023-04-17T02:49:49.786Z,33.13
2023-04-17T02:51:51.561Z,28.95
2023-04-17T02:53:53.253Z,29.13
2023-04-17T02:55:55.901Z,28.88
2023-04-17T02:57:57.412Z,27.35
2023-04-17T02:59:58.961Z,26.63
2023-04-17T03:02:00.562Z,24.33
2023-04-17T03:04:02.372Z,24.13
2023-04-17T03:06:04.240Z,22.55
2023-04-17T03:08:06.518Z,21.58
2023-04-17T03:10:09.395Z,21.10
2023-04-17T03:12:10.938Z,20.35
2023-04-17T03:14:12.420Z,19.15
2023-04-17T03:16:14.088Z,20.73
2023-04-17T03:18:15.811Z,20.45
2023-04-17T03:20:17.904Z,20.33
2023-04-17T03:22:19.442Z,20.98
2023-04-17T03:24:21.150Z,20.25
2023-04-17T03:26:22.703Z,20.40
2023-04-17T03:28:24.349Z,20.40
2023-04-17T03:30:25.822Z,21.83
2023-04-17T03:32:27.307Z,20.25
2023-04-17T03:34:29.126Z,20.50
2023-04-17T03:36:30.955Z,19.02
2023-04-17T03:38:33.189Z,20.30
2023-04-17T03:40:35.390Z,18.15
2023-04-17T03:42:36.873Z,20.05
2023-04-17T03:44:38.329Z,20.02
2023-04-17T03:46:39.911Z,20.45
2023-04-17T03:48:41.352Z,20.17
2023-04-17T03:50:42.916Z,21.00
2023-04-17T03:52:44.583Z,21.00
2023-04-17T03:54:48.892Z,19.25
2023-04-17T03:56:50.401Z,21.25
2023-04-17T03:58:51.920Z,22.58
2023-04-17T04:00:55.592Z,21.02
2023-04-17T04:02:57.223Z,19.92
2023-04-17T04:04:58.917Z,20.58
2023-04-17T04:07:01.547Z,20.45
2023-04-17T04:09:03.583Z,20.80
2023-04-17T04:11:05.164Z,19.98
2023-04-17T04:13:06.613Z,20.92
2023-04-17T04:15:08.718Z,21.92
2023-04-17T04:17:10.207Z,20.40
2023-04-17T04:19:11.940Z,21.63
2023-04-17T04:21:13.733Z,19.80
2023-04-17T04:23:16.805Z,21.20
2023-04-17T04:25:18.469Z,20.13
2023-04-17T04:27:22.693Z,19.83
2023-04-17T04:29:25.627Z,22.60
2023-04-17T04:31:29.701Z,21.83
2023-04-17T04:33:31.350Z,21.05
2023-04-17T04:35:32.854Z,21.15
2023-04-17T04:37:34.336Z,22.15
2023-04-17T04:39:38.034Z,20.70
2023-04-17T04:41:45.817Z,22.45
2023-04-17T04:43:47.291Z,20.15
2023-04-17T04:45:48.788Z,21.05
2023-04-17T04:47:50.331Z,20.98
2023-04-17T04:49:52.087Z,21.02
2023-04-17T04:51:53.606Z,20.40
2023-04-17T04:53:55.737Z,20.42
2023-04-17T04:55:57.267Z,20.17
2023-04-17T04:57:58.794Z,21.30
2023-04-17T05:00:00.334Z,21.65
2023-04-17T05:02:01.970Z,20.38
2023-04-17T05:04:03.840Z,19.45
2023-04-17T05:06:06.027Z,19.40
2023-04-17T05:08:07.473Z,20.27
2023-04-17T05:10:09.399Z,20.30
2023-04-17T05:12:10.954Z,21.20
2023-04-17T05:14:12.422Z,20.80
2023-04-17T05:16:13.950Z,21.83
2023-04-17T05:18:15.530Z,21.52
2023-04-17T05:20:17.096Z,22.83
2023-04-17T05:22:18.601Z,21.35
2023-04-17T05:24:20.429Z,22.05
2023-04-17T05:26:22.247Z,22.75
2023-04-17T05:28:23.892Z,21.08
2023-04-17T05:30:25.394Z,21.77
2023-04-17T05:32:26.907Z,21.23
2023-04-17T05:34:28.397Z,21.25
2023-04-17T05:36:31.581Z,21.60
2023-04-17T05:38:33.132Z,20.95
2023-04-17T05:40:34.819Z,21.52
2023-04-17T05:42:36.560Z,21.75
2023-04-17T05:44:38.034Z,22.38
2023-04-17T05:46:39.612Z,21.13
2023-04-17T05:48:41.179Z,22.50
2023-04-17T05:50:42.657Z,22.52
2023-04-17T05:52:44.244Z,21.30
2023-04-17T05:54:45.850Z,21.95
2023-04-17T05:56:47.517Z,21.80
2023-04-17T05:58:48.960Z,21.95
2023-04-17T06:00:50.835Z,23.00
2023-04-17T06:02:52.473Z,22.80
2023-04-17T06:04:54.162Z,21.73
2023-04-17T06:06:55.852Z,21.45
2023-04-17T06:08:57.570Z,22.08
2023-04-17T06:10:59.042Z,22.35
2023-04-17T06:13:00.702Z,22.75
2023-04-17T06:15:02.302Z,23.15
2023-04-17T06:17:03.885Z,21.45
2023-04-17T06:19:05.525Z,22.60
2023-04-17T06:21:07.836Z,21.63
2023-04-17T06:23:09.301Z,21.58
2023-04-17T06:25:10.772Z,20.90
2023-04-17T06:27:12.281Z,20.63
2023-04-17T06:29:15.493Z,22.77
2023-04-17T06:31:17.106Z,22.30
2023-04-17T06:33:18.598Z,22.13
2023-04-17T06:35:20.440Z,22.13
2023-04-17T06:37:21.901Z,21.85
2023-04-17T06:39:23.327Z,22.85
2023-04-17T06:41:24.764Z,22.88
2023-04-17T06:43:26.258Z,22.40
2023-04-17T06:45:27.697Z,22.65
2023-04-17T06:47:29.304Z,22.80
2023-04-17T06:49:33.930Z,22.65
2023-04-17T06:51:35.394Z,22.98
2023-04-17T06:53:36.915Z,24.30
2023-04-17T06:55:38.394Z,22.90
2023-04-17T06:57:39.873Z,23.48
2023-04-17T06:59:41.356Z,22.83
2023-04-17T07:01:42.830Z,23.45
2023-04-17T07:03:44.618Z,23.73
2023-04-17T07:05:46.526Z,24.17
2023-04-17T07:07:48.193Z,23.73
2023-04-17T07:09:49.756Z,23.27
2023-04-17T07:11:51.465Z,24.15
2023-04-17T07:13:52.944Z,24.38
2023-04-17T07:15:55.576Z,23.13
2023-04-17T07:17:57.203Z,23.15
2023-04-17T07:19:58.732Z,23.77
2023-04-17T07:22:00.321Z,22.88
2023-04-17T07:24:01.789Z,22.17
2023-04-17T07:26:03.325Z,24.80
2023-04-17T07:28:05.385Z,24.80
2023-04-17T07:30:08.209Z,22.63
2023-04-17T07:32:09.712Z,22.98
2023-04-17T07:34:11.408Z,21.20
2023-04-17T07:36:13.036Z,22.77
2023-04-17T07:38:14.519Z,21.17
2023-04-17T07:40:16.921Z,20.13
2023-04-17T07:42:18.389Z,20.85
2023-04-17T07:44:19.936Z,20.85
2023-04-17T07:46:21.445Z,20.73
2023-04-17T07:48:23.378Z,20.02
2023-04-17T07:50:25.122Z,18.58
2023-04-17T07:52:26.710Z,19.05
2023-04-17T07:54:28.202Z,18.15
2023-04-17T07:56:31.830Z,18.58
2023-04-17T07:58:35.740Z,18.67
2023-04-17T08:00:41.991Z,16.95
2023-04-17T08:02:43.838Z,17.48
2023-04-17T08:04:46.516Z,17.90
2023-04-17T08:06:48.267Z,16.88
2023-04-17T08:08:49.984Z,16.00
2023-04-17T08:10:51.522Z,16.55
2023-04-17T08:12:52.969Z,16.02
2023-04-17T08:14:54.439Z,15.85
2023-04-17T08:16:55.931Z,15.25
2023-04-17T08:18:57.421Z,14.57
2023-04-17T08:20:59.063Z,15.73
2023-04-17T08:23:00.619Z,14.55
2023-04-17T08:25:03.121Z,14.13
2023-04-17T08:27:05.194Z,14.43
2023-04-17T08:29:07.385Z,13.60
2023-04-17T08:31:10.418Z,13.93
2023-04-17T08:33:13.535Z,14.10
2023-04-17T08:35:15.792Z,13.82
2023-04-17T08:37:17.241Z,15.45
2023-04-17T08:39:19.439Z,16.25
2023-04-17T08:41:25.551Z,15.90
2023-04-17T08:43:29.488Z,13.95
2023-04-17T08:45:35.454Z,13.80
2023-04-17T08:47:39.651Z,12.80
2023-04-17T08:49:44.100Z,11.65
2023-04-17T08:51:46.972Z,11.32
2023-04-17T08:53:48.432Z,12.50
2023-04-17T08:55:50.018Z,12.05
2023-04-17T08:57:55.368Z,12.73
2023-04-17T08:59:56.857Z,12.05
2023-04-17T09:02:06.777Z,11.85
2023-04-17T09:04:08.942Z,9.57
2023-04-17T09:06:11.492Z,10.80
2023-04-17T09:08:20.469Z,11.65
2023-04-17T09:10:38.128Z,10.98
2023-04-17T09:12:41.956Z,10.90
2023-04-17T09:14:43.653Z,10.50
2023-04-17T09:16:54.942Z,10.85
2023-04-17T09:19:09.711Z,10.93
2023-04-17T09:21:11.946Z,10.23
2023-04-17T09:23:13.413Z,10.68
2023-04-17T09:25:19.243Z,10.73
2023-04-17T09:27:23.876Z,10.20
2023-04-17T09:29:25.567Z,9.23
2023-04-17T09:31:30.436Z,9.13
2023-04-17T09:33:32.095Z,10.05
2023-04-17T09:35:34.480Z,10.88
2023-04-17T09:37:50.492Z,10.80
2023-04-17T09:40:00.037Z,11.32
2023-04-17T09:42:03.983Z,10.10
2023-04-17T09:44:06.273Z,9.07
2023-04-17T09:46:07.921Z,9.50
2023-04-17T09:48:11.612Z,9.48
2023-04-17T09:50:16.966Z,8.68
2023-04-17T09:52:20.774Z,8.77
2023-04-17T09:54:23.344Z,8.77
2023-04-17T09:56:26.510Z,8.23
2023-04-17T09:58:27.945Z,8.38
2023-04-17T10:00:29.819Z,8.07
2023-04-17T10:02:32.740Z,8.50
2023-04-17T10:04:35.326Z,8.88
2023-04-17T10:06:37.031Z,7.60
2023-04-17T10:08:39.092Z,8.80
2023-04-17T10:10:40.732Z,7.30
2023-04-17T10:12:43.315Z,7.43
2023-04-17T10:14:48.274Z,6.78
2023-04-17T10:16:50.584Z,8.25
2023-04-17T10:19:27.708Z,7.85
2023-04-17T10:21:29.295Z,7.90
2023-04-17T10:23:33.554Z,7.40
2023-04-17T10:25:35.377Z,7.95
2023-04-17T10:27:36.775Z,8.25
2023-04-17T10:29:57.583Z,7.93
2023-04-17T10:32:11.198Z,7.75
2023-04-17T10:34:39.584Z,6.85
2023-04-17T10:36:42.463Z,7.20
2023-04-17T10:38:43.999Z,7.60
2023-04-17T10:40:45.974Z,8.63
2023-04-17T10:43:14.857Z,7.68
2023-04-17T10:45:19.478Z,8.88
2023-04-17T10:47:22.470Z,8.77
2023-04-17T10:49:24.683Z,8.15
2023-04-17T10:51:29.141Z,7.75
2023-04-17T10:53:37.527Z,6.53
2023-04-17T10:55:49.327Z,6.47
2023-04-17T10:57:54.670Z,6.75
2023-04-17T11:00:12.346Z,6.70
2023-04-17T11:02:14.901Z,7.30
2023-04-17T11:04:24.645Z,7.45
2023-04-17T11:06:33.564Z,7.47
2023-04-17T11:08:35.270Z,7.10
2023-04-17T11:10:37.445Z,7.30
2023-04-17T11:12:39.331Z,7.03
2023-04-17T11:14:43.088Z,7.53
2023-04-17T11:16:47.633Z,8.05
2023-04-17T11:18:49.203Z,7.13
2023-04-17T11:20:52.335Z,6.57
2023-04-17T11:22:53.889Z,7.13
2023-04-17T11:24:55.425Z,6.85
2023-04-17T11:26:59.712Z,6.90
2023-04-17T11:29:01.908Z,6.25
2023-04-17T11:31:04.436Z,7.50
2023-04-17T11:33:07.946Z,7.53
2023-04-17T11:35:10.010Z,7.25
2023-04-17T11:37:14.570Z,7.03
2023-04-17T11:39:16.259Z,6.75
2023-04-17T11:41:17.816Z,6.43
2023-04-17T11:43:21.103Z,6.97
2023-04-17T11:45:22.710Z,6.72
2023-04-17T11:47:24.248Z,6.72
2023-04-17T11:49:29.355Z,6.13
2023-04-17T11:51:31.785Z,6.60
2023-04-17T11:53:35.286Z,6.38
2023-04-17T11:55:36.747Z,6.22
2023-04-17T11:57:44.076Z,5.95
2023-04-17T11:59:46.077Z,6.47
2023-04-17T12:01:53.505Z,6.82
2023-04-17T12:03:59.345Z,5.53
2023-04-17T12:06:03.177Z,5.43
2023-04-17T12:08:07.383Z,5.50
2023-04-17T12:10:09.170Z,6.25
2023-04-17T12:12:11.017Z,5.82
2023-04-17T12:14:12.861Z,6.20
2023-04-17T12:16:14.468Z,6.07
2023-04-17T12:18:15.993Z,6.95
2023-04-17T12:20:17.469Z,6.68
2023-04-17T12:22:19.378Z,5.90
2023-04-17T12:24:22.891Z,5.80
2023-04-17T12:26:25.683Z,5.47
2023-04-17T12:28:27.249Z,5.30
2023-04-17T12:30:29.392Z,5.00
2023-04-17T12:32:31.158Z,4.80
2023-04-17T12:34:32.731Z,5.00
2023-04-17T12:36:34.533Z,5.15
2023-04-17T12:38:36.148Z,6.15
2023-04-17T12:40:42.962Z,6.25
2023-04-17T12:42:49.066Z,4.97
2023-04-17T12:44:51.312Z,5.22
2023-04-17T12:46:52.793Z,4.78
2023-04-17T12:48:58.442Z,4.65
2023-04-17T12:50:59.966Z,5.00
2023-04-17T12:53:01.440Z,5.43
2023-04-17T12:55:04.520Z,4.85
2023-04-17T12:57:06.165Z,4.75
2023-04-17T12:59:07.879Z,4.13
2023-04-17T13:01:09.511Z,4.60
2023-04-17T13:03:11.905Z,4.90
2023-04-17T13:05:13.762Z,4.75
2023-04-17T13:07:15.357Z,4.82
2023-04-17T13:09:17.961Z,5.35
2023-04-17T13:11:19.495Z,4.85
2023-04-17T13:13:20.933Z,4.07
2023-04-17T13:15:22.529Z,4.78
2023-04-17T13:17:25.142Z,5.30
2023-04-17T13:19:26.627Z,4.35
2023-04-17T13:21:28.201Z,4.82
2023-04-17T13:23:29.692Z,5.32
2023-04-17T13:25:31.851Z,4.57
2023-04-17T13:27:33.371Z,5.05
2023-04-17T13:29:34.895Z,4.22
2023-04-17T13:31:37.053Z,4.35
2023-04-17T13:33:40.282Z,4.88
2023-04-17T13:35:42.168Z,5.18
2023-04-17T13:37:43.646Z,4.63
2023-04-17T13:39:45.118Z,4.85
2023-04-17T13:41:46.951Z,4.70
2023-04-17T13:43:48.425Z,4.90
2023-04-17T13:45:52.267Z,4.93
2023-04-17T13:47:55.054Z,5.03
2023-04-17T13:49:56.559Z,4.95
2023-04-17T13:51:58.091Z,4.60
2023-04-17T13:53:59.676Z,4.90
2023-04-17T13:56:01.259Z,4.45
2023-04-17T13:58:02.965Z,4.68
2023-04-17T14:00:04.878Z,5.03
2023-04-17T14:02:06.944Z,4.63
2023-04-17T14:04:09.502Z,4.72
2023-04-17T14:06:11.570Z,4.78
2023-04-17T14:08:13.047Z,4.75
2023-04-17T14:10:14.563Z,5.88
2023-04-17T14:12:20.605Z,5.03
2023-04-17T14:14:22.465Z,4.68
2023-04-17T14:16:24.086Z,4.38
2023-04-17T14:18:25.619Z,4.43
2023-04-17T14:20:27.165Z,5.15
2023-04-17T14:22:28.640Z,4.35
2023-04-17T14:24:30.229Z,4.78
2023-04-17T14:26:31.792Z,4.28
2023-04-17T14:28:33.399Z,4.88
2023-04-17T14:30:34.908Z,4.28
2023-04-17T14:32:38.410Z,4.20
2023-04-17T14:34:40.074Z,3.92
2023-04-17T14:36:43.027Z,4.30
2023-04-17T14:38:48.910Z,4.05
2023-04-17T14:40:50.813Z,4.20
2023-04-17T14:42:54.661Z,4.05
2023-04-17T14:44:56.407Z,3.85
2023-04-17T14:46:58.174Z,3.40
2023-04-17T14:48:59.797Z,3.42
2023-04-17T14:51:01.608Z,3.90
2023-04-17T14:53:04.553Z,4.18
2023-04-17T14:55:06.264Z,4.35
2023-04-17T14:57:08.466Z,4.90
2023-04-17T14:59:10.031Z,4.10
2023-04-17T15:01:11.619Z,4.65
2023-04-17T15:03:13.244Z,4.63
2023-04-17T15:05:18.801Z,4.45
2023-04-17T15:07:20.742Z,5.10
2023-04-17T15:09:22.207Z,5.03
2023-04-17T15:11:23.780Z,4.40
2023-04-17T15:13:25.347Z,5.07
2023-04-17T15:15:28.543Z,5.05
2023-04-17T15:17:30.227Z,5.40
2023-04-17T15:19:31.731Z,5.55
2023-04-17T15:21:33.254Z,5.05
2023-04-17T15:23:35.487Z,4.78
2023-04-17T15:25:37.190Z,5.07
2023-04-17T15:27:38.644Z,4.97
2023-04-17T15:29:40.347Z,5.22
2023-04-17T15:31:42.061Z,4.50
2023-04-17T15:33:45.598Z,4.70
2023-04-17T15:35:47.300Z,4.93
2023-04-17T15:37:48.857Z,4.80
2023-04-17T15:39:50.629Z,5.32
2023-04-17T15:41:52.260Z,4.85
2023-04-17T15:43:53.723Z,5.50
2023-04-17T15:45:55.648Z,4.90
2023-04-17T15:47:58.130Z,5.07
2023-04-17T15:49:59.721Z,4.25
2023-04-17T15:52:01.309Z,4.97
2023-04-17T15:54:03.165Z,5.57
2023-04-17T15:56:06.815Z,5.13
2023-04-17T15:58:08.442Z,5.43
2023-04-17T16:00:10.689Z,5.32
2023-04-17T16:02:13.626Z,5.45
2023-04-17T16:04:15.321Z,5.55
2023-04-17T16:06:16.902Z,4.90
2023-04-17T16:08:18.356Z,4.68
2023-04-17T16:10:19.984Z,5.15
2023-04-17T16:12:21.481Z,5.28
2023-04-17T16:14:22.962Z,4.72
2023-04-17T16:16:24.439Z,5.40
2023-04-17T16:18:26.001Z,5.03
2023-04-17T16:20:27.449Z,5.28
2023-04-17T16:22:28.949Z,5.53
2023-04-17T16:24:30.462Z,13.10
2023-04-17T16:26:32.049Z,4.97
2023-04-17T16:28:34.413Z,5.63
2023-04-17T16:30:36.004Z,5.07
2023-04-17T16:32:37.601Z,5.10
2023-04-17T16:34:39.181Z,4.90
2023-04-17T16:36:45.189Z,5.75
2023-04-17T16:38:47.204Z,4.78
2023-04-17T16:40:48.692Z,5.00
2023-04-17T16:42:50.441Z,5.80
2023-04-17T16:44:52.001Z,5.55
2023-04-17T16:48:59.674Z,5.38
2023-04-17T16:51:07.439Z,5.13
2023-04-17T16:53:09.291Z,4.72
2023-04-17T16:55:10.856Z,5.00
2023-04-17T16:57:12.350Z,5.15
2023-04-17T16:59:14.286Z,5.00
2023-04-17T17:01:15.995Z,5.32
2023-04-17T17:03:18.316Z,5.00
2023-04-17T17:05:20.003Z,5.05
2023-04-17T17:07:21.455Z,5.00
2023-04-17T17:09:22.978Z,5.13
2023-04-17T17:11:24.521Z,4.68
2023-04-17T17:13:26.368Z,5.10
2023-04-17T17:15:27.890Z,4.55
2023-04-17T17:17:30.035Z,5.03
2023-04-17T17:19:31.629Z,5.00
2023-04-17T17:21:33.191Z,4.43
2023-04-17T17:23:34.881Z,5.00
2023-04-17T17:25:36.362Z,4.68
2023-04-17T17:27:37.884Z,4.90
2023-04-17T17:29:39.691Z,4.55
2023-04-17T17:31:41.244Z,4.13
2023-04-17T17:33:42.776Z,3.70
2023-04-17T17:35:44.249Z,3.67
2023-04-17T17:37:45.799Z,3.85
2023-04-17T17:39:47.255Z,4.75
2023-04-17T17:41:48.761Z,4.43
2023-04-17T17:43:50.362Z,3.97
2023-04-17T17:45:52.387Z,4.60
2023-04-17T17:47:54.029Z,4.05
2023-04-17T17:49:55.719Z,4.53
2023-04-17T17:51:57.166Z,4.75
2023-04-17T17:53:58.639Z,4.72
2023-04-17T17:56:00.122Z,4.68
2023-04-17T17:58:01.645Z,4.63
2023-04-17T18:00:03.513Z,4.78
2023-04-17T18:02:05.157Z,4.50
2023-04-17T18:04:06.952Z,4.70
2023-04-17T18:06:09.211Z,4.97
2023-04-17T18:08:10.760Z,4.65
2023-04-17T18:10:12.359Z,4.55
2023-04-17T18:12:13.805Z,5.20
2023-04-17T18:14:15.274Z,5.22
2023-04-17T18:16:17.067Z,5.50
2023-04-17T18:18:18.557Z,5.20
2023-04-17T18:20:20.143Z,5.47
2023-04-17T18:22:21.628Z,5.50
2023-04-17T18:24:23.162Z,5.05
2023-04-17T18:26:24.665Z,5.00
2023-04-17T18:28:27.015Z,5.40
2023-04-17T18:30:28.708Z,5.90
2023-04-17T18:32:31.587Z,5.60
2023-04-17T18:34:33.091Z,5.88
2023-04-17T18:36:34.599Z,5.45
2023-04-17T18:38:36.111Z,5.22
2023-04-17T18:40:37.853Z,5.53
2023-04-17T18:42:39.302Z,5.22
2023-04-17T18:44:41.806Z,5.32
2023-04-17T18:46:43.278Z,5.13
2023-04-17T18:48:44.852Z,5.50
2023-04-17T18:50:46.333Z,5.10
2023-04-17T18:52:50.452Z,5.05
2023-04-17T18:54:52.769Z,5.38
2023-04-17T18:56:54.302Z,5.55
2023-04-17T18:58:55.765Z,6.05
2023-04-17T19:00:57.278Z,5.75
2023-04-17T19:02:58.777Z,5.40
2023-04-17T19:05:00.494Z,5.05
2023-04-17T19:07:02.766Z,5.20
2023-04-17T19:09:04.310Z,5.25
2023-04-17T19:19:05.679Z,5.43
2023-04-17T19:21:07.328Z,5.53
2023-04-17T19:23:10.150Z,5.78
2023-04-17T19:25:11.791Z,5.53
2023-04-17T19:27:13.562Z,5.50
2023-04-17T19:29:17.122Z,5.55
2023-04-17T19:31:18.662Z,5.43
2023-04-17T19:33:20.450Z,6.07
2023-04-17T19:35:21.956Z,5.32
2023-04-17T19:37:23.419Z,5.50
2023-04-17T19:39:27.309Z,5.68
2023-04-17T19:41:28.860Z,5.97
2023-04-17T19:43:30.314Z,5.95
2023-04-17T19:45:33.282Z,6.03
2023-04-17T19:47:34.861Z,5.85
2023-04-17T19:49:36.645Z,6.10
2023-04-17T19:51:38.724Z,6.13
2023-04-17T19:53:42.336Z,6.43
2023-04-17T19:55:43.798Z,6.82
2023-04-17T19:57:45.382Z,5.80
2023-04-17T19:59:46.868Z,6.45
2023-04-17T20:01:48.802Z,5.57
2023-04-17T20:03:51.372Z,5.50
2023-04-17T20:05:53.914Z,5.88
2023-04-17T20:07:55.459Z,5.72
2023-04-17T20:09:56.987Z,5.35
2023-04-17T20:11:58.531Z,5.35
2023-04-17T20:14:00.030Z,5.60
2023-04-17T20:16:01.721Z,5.93
2023-04-17T20:18:05.469Z,5.22
2023-04-17T20:20:07.551Z,5.50
2023-04-17T20:22:09.017Z,6.07
2023-04-17T20:24:10.629Z,5.75
2023-04-17T20:26:12.087Z,5.28
2023-04-17T20:28:13.574Z,5.43
2023-04-17T20:30:15.436Z,5.32
2023-04-17T20:32:17.881Z,5.47
2023-04-17T20:34:19.465Z,5.45
2023-04-17T20:36:21.081Z,5.28
2023-04-17T20:38:22.680Z,6.50
2023-04-17T20:40:24.207Z,6.25
2023-04-17T20:42:25.728Z,5.70
2023-04-17T20:44:27.181Z,5.97
2023-04-17T20:46:29.393Z,6.70
2023-04-17T20:48:31.017Z,6.35
2023-04-17T20:50:32.534Z,6.68
2023-04-17T20:52:34.234Z,5.88
2023-04-17T20:54:35.858Z,6.10
2023-04-17T20:56:37.325Z,6.05
2023-04-17T20:58:38.827Z,6.70
2023-04-17T21:00:53.974Z,6.60
2023-04-17T21:03:02.031Z,6.25
2023-04-17T21:05:04.053Z,6.10
2023-04-17T21:07:05.565Z,6.38
2023-04-17T21:09:08.655Z,6.10
2023-04-17T21:11:10.192Z,7.50
2023-04-17T21:13:11.639Z,5.60
2023-04-17T21:15:13.284Z,6.05
2023-04-17T21:17:14.859Z,5.97
2023-04-17T21:19:16.373Z,6.45
2023-04-17T21:21:17.891Z,5.85
2023-04-17T21:23:19.422Z,6.47
2023-04-17T21:25:21.497Z,6.13
2023-04-17T21:27:23.107Z,5.63
2023-04-17T21:29:28.440Z,6.13
2023-04-17T21:31:31.300Z,6.20
2023-04-17T21:33:32.761Z,5.97
2023-04-17T21:35:35.532Z,5.85
2023-04-17T21:37:37.079Z,5.80
2023-04-17T21:39:38.512Z,6.03
2023-04-17T21:41:39.971Z,5.95
2023-04-17T21:43:41.403Z,6.30
2023-04-17T21:45:42.896Z,6.10
2023-04-17T21:47:44.458Z,5.90
2023-04-17T21:49:47.406Z,5.60
2023-04-17T21:51:48.892Z,6.93
2023-04-17T21:53:50.424Z,5.97
2023-04-17T21:55:51.884Z,6.13
2023-04-17T21:57:53.446Z,5.75
2023-04-17T21:59:54.905Z,6.30
2023-04-17T22:01:56.597Z,6.18
2023-04-17T22:03:58.104Z,5.95
2023-04-17T22:06:00.129Z,6.63
2023-04-17T22:08:01.687Z,6.28
2023-04-17T22:10:03.326Z,6.63
2023-04-17T22:12:12.239Z,5.93
2023-04-17T22:14:14.252Z,6.50
2023-04-17T22:16:16.005Z,6.65
2023-04-17T22:18:17.643Z,6.40
2023-04-17T22:20:19.892Z,6.47
2023-04-17T22:22:21.682Z,6.43
2023-04-17T22:24:23.139Z,7.03
2023-04-17T22:26:26.813Z,7.00
2023-04-17T22:28:31.357Z,6.68
2023-04-17T22:30:32.880Z,6.47
2023-04-17T22:32:34.483Z,7.22
2023-04-17T22:34:36.019Z,7.13
2023-04-17T22:36:37.503Z,6.35
2023-04-17T22:38:38.943Z,6.53
2023-04-17T22:40:41.332Z,6.45
2023-04-17T22:42:42.997Z,6.82
2023-04-17T22:44:44.563Z,7.05
2023-04-17T22:46:46.109Z,7.38
2023-04-17T22:48:49.553Z,6.88
2023-04-17T22:50:51.040Z,7.03
2023-04-17T22:52:55.544Z,6.90
2023-04-17T22:54:57.212Z,7.03
2023-04-17T22:56:58.911Z,6.82
2023-04-17T22:59:00.428Z,6.70
2023-04-17T23:01:01.929Z,7.05
2023-04-17T23:03:03.625Z,7.47
2023-04-17T23:05:06.353Z,6.82
2023-04-17T23:07:07.962Z,6.82
2023-04-17T23:09:09.430Z,6.75
2023-04-17T23:11:11.021Z,6.40
2023-04-17T23:13:12.594Z,7.00
2023-04-17T23:15:14.361Z,6.82
2023-04-17T23:17:15.828Z,6.70
2023-04-17T23:19:18.337Z,6.72
2023-04-17T23:21:19.964Z,6.90
2023-04-17T23:23:21.574Z,7.45
2023-04-17T23:25:23.060Z,7.18
2023-04-17T23:27:24.602Z,6.45
2023-04-17T23:29:26.145Z,6.43
2023-04-17T23:31:27.762Z,7.10
2023-04-17T23:33:29.299Z,7.22
2023-04-17T23:35:30.811Z,6.90
2023-04-17T23:37:32.445Z,6.70
2023-04-17T23:39:34.709Z,7.60
2023-04-17T23:41:36.414Z,6.90
2023-04-17T23:43:37.885Z,7.10
2023-04-17T23:45:39.474Z,7.20
2023-04-17T23:47:41.023Z,7.65
2023-04-17T23:49:42.484Z,7.00
2023-04-17T23:51:43.983Z,6.97
2023-04-17T23:53:45.503Z,7.00
2023-04-17T23:55:47.052Z,7.18
2023-04-17T23:57:48.520Z,7.07
2023-04-17T23:59:49.967Z,6.30
